Time;durP1;ratioP1;P1;durP2;ratioP2;P2;SDS_P1;SDS_P2;PMS_P1;PMS_P2;Temp;Humidity;BMP_temperature;BMP_pressure;BME280_temperature;BME280_humidity;BME280_pressure;Samples;Min_cycle;Max_cycle;Signal;HPM_P1;HPM_P2
2021/03/06 00:00:40;;;;;;;5.53;3.10;;;2.20;78.20;;;;;;5077407;28;20051;-70
2021/03/06 00:03:06;;;;;;;3.83;2.30;;;2.30;77.90;;;;;;5077407;28;20032;-70
2021/03/06 00:05:32;;;;;;;4.30;2.30;;;2.30;77.50;;;;;;5081657;28;20032;-70
2021/03/06 00:07:57;;;;;;;3.40;2.10;;;2.40;77.20;;;;;;5094386;28;20071;-70
2021/03/06 00:10:23;;;;;;;5.40;2.55;;;2.40;76.90;;;;;;5094227;28;20477;-70
2021/03/06 05:38:27;;;;;;;7.55;4.50;;;1.90;69.60;;;;;;5088469;28;20066;-71
2021/03/06 05:40:53;;;;;;;6.43;3.72;;;2.20;69.20;;;;;;5071549;28;20374;-71
2021/03/06 05:43:18;;;;;;;6.28;3.67;;;2.50;68.60;;;;;;5085213;28;20435;-70
2021/03/06 05:45:46;;;;;;;6.68;3.60;;;2.70;68.00;;;;;;5063379;28;20141;-71
2021/03/06 05:48:12;;;;;;;5.90;3.55;;;2.90;67.40;;;;;;5053425;28;20074;-71
2021/03/06 05:50:40;;;;;;;8.00;3.60;;;3.10;66.60;;;;;;5064458;28;20024;-72
2021/03/06 05:53:09;;;;;;;6.10;3.50;;;3.10;65.30;;;;;;5075805;28;20044;-73
2021/03/06 05:55:36;;;;;;;6.07;3.40;;;3.30;66.10;;;;;;5054199;28;20024;-71
2021/03/06 05:58:02;;;;;;;5.95;3.08;;;3.90;66.70;;;;;;5048531;28;20028;-72
2021/03/06 06:00:29;;;;;;;5.18;2.90;;;4.40;65.70;;;;;;5072254;28;20079;-72
2021/03/06 06:02:56;;;;;;;4.40;2.80;;;5.00;64.30;;;;;;5048197;28;20075;-75
2021/03/06 06:05:24;;;;;;;5.75;2.90;;;5.60;62.80;;;;;;5044967;28;20451;-72
2021/03/06 06:07:54;;;;;;;4.70;2.83;;;6.20;61.60;;;;;;5066981;28;20467;-72
2021/03/06 06:10:22;;;;;;;5.93;3.13;;;6.80;59.30;;;;;;5043388;28;20486;-72
2021/03/06 06:12:47;;;;;;;5.22;2.92;;;7.10;57.00;;;;;;5042999;28;20115;-72
2021/03/06 06:15:14;;;;;;;4.90;2.67;;;7.40;55.70;;;;;;5038434;28;20525;-72
2021/03/06 06:17:40;;;;;;;4.72;2.60;;;7.90;55.00;;;;;;5060848;28;20470;-72
2021/03/06 06:20:08;;;;;;;4.30;2.30;;;8.40;53.90;;;;;;5094742;28;20032;-70
2021/03/06 06:22:33;;;;;;;4.90;2.38;;;8.70;52.40;;;;;;5064247;28;20058;-73
2021/03/06 06:25:00;;;;;;;5.55;2.63;;;8.90;51.20;;;;;;5075503;28;20109;-72
2021/03/06 06:27:33;;;;;;;5.75;2.78;;;9.10;50.00;;;;;;5090578;28;20077;-72
2021/03/06 06:30:01;;;;;;;6.28;3.13;;;9.40;48.90;;;;;;5051529;28;20020;-72
2021/03/06 06:32:44;;;;;;;5.18;2.60;;;9.50;48.10;;;;;;5057498;28;20140;-72
2021/03/06 06:35:13;;;;;;;6.18;2.80;;;9.60;47.20;;;;;;5072971;28;20028;-71
2021/03/06 06:37:39;;;;;;;6.85;3.03;;;9.60;46.40;;;;;;5065009;28;20051;-71
2021/03/06 06:40:26;;;;;;;6.32;3.08;;;9.60;46.60;;;;;;5049745;28;20025;-73
2021/03/06 06:42:52;;;;;;;5.10;2.50;;;9.80;46.00;;;;;;5059542;28;20032;-71
2021/03/06 06:45:19;;;;;;;6.20;3.30;;;10.00;45.90;;;;;;5041558;28;20127;-71
2021/03/06 06:47:50;;;;;;;4.85;2.50;;;10.10;45.20;;;;;;5039875;28;20079;-71
2021/03/06 06:50:31;;;;;;;4.82;2.70;;;10.30;44.70;;;;;;5044759;28;20117;-71
2021/03/06 06:52:57;;;;;;;4.50;2.50;;;10.50;44.30;;;;;;5054146;28;20035;-73
2021/03/06 06:55:37;;;;;;;6.03;3.20;;;10.50;43.80;;;;;;5042211;28;20021;-71
2021/03/06 06:58:03;;;;;;;8.73;4.57;;;10.50;43.10;;;;;;5058564;28;20157;-73
2021/03/06 07:00:30;;;;;;;3.92;2.50;;;10.50;43.10;;;;;;5067660;28;20024;-71
2021/03/06 07:03:00;;;;;;;5.85;2.60;;;10.60;42.50;;;;;;5054228;28;20479;-72
2021/03/06 07:05:40;;;;;;;3.15;2.00;;;10.60;42.30;;;;;;5068396;28;20033;-71
2021/03/06 07:08:23;;;;;;;4.65;2.20;;;10.70;41.40;;;;;;5085514;28;20086;-72
2021/03/06 07:10:50;;;;;;;5.25;2.22;;;10.60;41.20;;;;;;5059130;28;20035;-72
2021/03/06 07:13:18;;;;;;;4.95;2.28;;;10.60;40.80;;;;;;5056640;28;20044;-71
2021/03/06 07:15:54;;;;;;;3.75;2.28;;;10.80;41.10;;;;;;5052795;28;20371;-72
2021/03/06 07:18:20;;;;;;;6.13;2.70;;;11.00;40.60;;;;;;5055857;28;20028;-72
2021/03/06 07:20:48;;;;;;;6.07;2.60;;;11.30;40.80;;;;;;5075668;28;20081;-73
2021/03/06 07:23:22;;;;;;;5.00;2.13;;;11.40;39.80;;;;;;5059668;28;20466;-71
2021/03/06 07:25:56;;;;;;;4.55;2.55;;;11.50;38.90;;;;;;5061644;28;20124;-72
2021/03/06 07:28:23;;;;;;;3.85;2.03;;;11.60;39.20;;;;;;5053252;28;20021;-72
2021/03/06 07:30:50;;;;;;;4.78;2.50;;;11.90;39.20;;;;;;5082578;28;20024;-72
2021/03/06 07:33:18;;;;;;;4.35;2.03;;;12.10;38.50;;;;;;5054721;28;20079;-72
2021/03/06 07:35:45;;;;;;;3.38;2.00;;;12.10;37.80;;;;;;5059925;28;20032;-72
2021/03/06 07:38:15;;;;;;;5.10;2.17;;;12.20;37.60;;;;;;5039387;28;20049;-72
2021/03/06 07:40:48;;;;;;;4.00;1.85;;;12.40;37.20;;;;;;5038405;28;20055;-72
2021/03/06 07:43:21;;;;;;;3.67;2.00;;;12.40;36.90;;;;;;5037368;28;20479;-75
2021/03/06 07:45:50;;;;;;;3.60;2.13;;;12.60;36.50;;;;;;5051198;28;20416;-71
2021/03/06 07:48:19;;;;;;;5.65;2.55;;;12.40;35.80;;;;;;5058929;28;20029;-71
2021/03/06 07:50:50;;;;;;;3.92;2.38;;;12.30;35.60;;;;;;5050171;28;20108;-71
2021/03/06 07:53:18;;;;;;;3.92;2.38;;;12.30;36.30;;;;;;5061435;28;20390;-71
2021/03/06 07:55:44;;;;;;;3.90;2.20;;;12.70;36.60;;;;;;5061616;28;20031;-72
2021/03/06 07:58:16;;;;;;;4.95;2.22;;;13.10;36.10;;;;;;5071929;28;20033;-72
2021/03/06 08:00:58;;;;;;;4.40;1.83;;;13.30;35.30;;;;;;5063801;28;20028;-72
2021/03/06 08:03:38;;;;;;;3.65;2.28;;;13.30;34.50;;;;;;5048984;28;20515;-72
2021/03/06 08:06:07;;;;;;;4.93;2.30;;;13.30;34.50;;;;;;5048256;28;20036;-72
2021/03/06 08:08:33;;;;;;;5.90;2.42;;;13.30;34.70;;;;;;5040633;28;20032;-73
2021/03/06 08:11:07;;;;;;;3.90;2.30;;;13.70;34.70;;;;;;5040892;28;20028;-73
2021/03/06 08:13:54;;;;;;;4.43;2.40;;;14.10;34.50;;;;;;5059186;28;20024;-71
2021/03/06 08:16:29;;;;;;;4.20;1.95;;;14.10;33.50;;;;;;5049060;28;20367;-72
2021/03/06 08:19:09;;;;;;;4.80;2.40;;;14.10;33.60;;;;;;5071754;28;20497;-72
2021/03/06 08:21:37;;;;;;;6.40;3.17;;;14.30;33.50;;;;;;5093670;28;20020;-76
2021/03/06 08:24:14;;;;;;;4.75;2.67;;;14.30;33.60;;;;;;5075723;28;20031;-73
2021/03/06 08:26:40;;;;;;;4.10;2.40;;;14.40;33.80;;;;;;5071605;28;20039;-70
2021/03/06 08:32:13;;;;;;;4.38;2.70;;;14.50;33.30;;;;;;5087989;28;20031;-79
2021/03/06 08:34:47;;;;;;;4.85;2.67;;;14.60;32.90;;;;;;5065211;28;20024;-71
2021/03/06 08:37:22;;;;;;;4.70;2.58;;;14.50;32.80;;;;;;5049693;28;20391;-72
2021/03/06 08:39:51;;;;;;;4.32;2.22;;;14.50;32.60;;;;;;5065386;28;20525;-71
2021/03/06 08:42:21;;;;;;;5.07;2.70;;;14.40;31.70;;;;;;5059003;28;20032;-72
2021/03/06 08:44:48;;;;;;;4.30;2.67;;;13.80;31.40;;;;;;5066576;28;20033;-72
2021/03/06 08:47:27;;;;;;;4.13;2.53;;;13.70;31.80;;;;;;5049141;28;20024;-72
2021/03/06 08:49:58;;;;;;;4.93;2.85;;;13.80;32.10;;;;;;5074458;28;20051;-72
2021/03/06 08:52:26;;;;;;;3.97;2.10;;;13.70;31.70;;;;;;5063236;28;20020;-72
2021/03/06 08:54:53;;;;;;;4.35;2.25;;;13.70;31.50;;;;;;5053880;28;20021;-71
2021/03/06 08:57:29;;;;;;;4.97;2.05;;;13.90;31.00;;;;;;5049586;28;20016;-71
2021/03/06 08:59:56;;;;;;;3.17;1.80;;;13.90;30.90;;;;;;5057617;28;20017;-71
2021/03/06 09:02:33;;;;;;;4.03;2.17;;;14.10;31.00;;;;;;5052825;28;20020;-72
2021/03/06 09:05:06;;;;;;;4.03;2.25;;;14.30;31.00;;;;;;5052630;28;20021;-71
2021/03/06 09:07:44;;;;;;;4.32;2.22;;;14.40;30.90;;;;;;5064772;28;20020;-72
2021/03/06 09:10:33;;;;;;;4.35;2.20;;;14.50;30.80;;;;;;5058750;28;20029;-71
2021/03/06 09:13:14;;;;;;;5.90;2.40;;;14.80;30.40;;;;;;5035765;28;20052;-73
2021/03/06 09:15:44;;;;;;;5.13;2.53;;;14.90;30.30;;;;;;5040334;28;20040;-72
2021/03/06 09:18:24;;;;;;;4.30;2.20;;;14.90;30.20;;;;;;5047547;28;20020;-72
2021/03/06 09:20:52;;;;;;;3.75;2.00;;;14.90;29.90;;;;;;5074147;28;20382;-70
2021/03/06 09:23:35;;;;;;;4.97;2.42;;;14.70;29.80;;;;;;5054619;28;20426;-71
2021/03/06 09:26:19;;;;;;;6.40;2.85;;;14.70;30.10;;;;;;5052855;28;20051;-71
2021/03/06 09:28:51;;;;;;;4.78;2.53;;;15.00;30.10;;;;;;5065729;28;20466;-71
2021/03/06 09:31:20;;;;;;;5.82;2.65;;;15.10;30.40;;;;;;5048417;28;20047;-71
2021/03/06 09:33:46;;;;;;;5.38;2.72;;;15.30;30.60;;;;;;5076232;28;20048;-71
2021/03/06 09:36:22;;;;;;;4.03;2.00;;;15.60;30.50;;;;;;5057991;28;20068;-70
2021/03/06 09:38:52;;;;;;;5.22;2.60;;;15.60;30.00;;;;;;5050187;28;20490;-71
2021/03/06 09:41:20;;;;;;;3.80;2.20;;;15.70;30.00;;;;;;5056299;28;20078;-71
2021/03/06 09:43:55;;;;;;;4.03;2.28;;;15.60;29.60;;;;;;5057258;28;20031;-72
2021/03/06 09:46:25;;;;;;;4.78;2.35;;;15.50;29.80;;;;;;5043917;28;20037;-71
2021/03/06 09:48:55;;;;;;;3.33;2.03;;;15.60;29.80;;;;;;5068307;28;20028;-72
2021/03/06 09:51:23;;;;;;;3.58;2.05;;;15.80;29.60;;;;;;5070490;28;20025;-71
2021/03/06 09:54:00;;;;;;;5.18;2.10;;;15.80;29.20;;;;;;5053289;28;20024;-70
2021/03/06 09:56:29;;;;;;;4.35;1.90;;;15.50;28.70;;;;;;5079849;28;20135;-71
2021/03/06 09:59:04;;;;;;;3.67;2.10;;;14.90;28.70;;;;;;5053432;28;20027;-75
2021/03/06 10:01:35;;;;;;;3.40;1.80;;;14.70;29.20;;;;;;5073976;28;20035;-71
2021/03/06 10:04:20;;;;;;;3.55;2.13;;;14.70;29.50;;;;;;5059804;28;20024;-71
2021/03/06 10:06:49;;;;;;;4.07;2.03;;;14.80;29.50;;;;;;5070421;28;20041;-72
2021/03/06 10:09:16;;;;;;;6.07;2.10;;;14.70;29.90;;;;;;5041869;28;20032;-71
2021/03/06 10:11:45;;;;;;;4.15;1.90;;;14.70;29.70;;;;;;5051030;28;20025;-70
2021/03/06 10:14:16;;;;;;;2.53;1.65;;;14.80;29.50;;;;;;5063817;28;20017;-71
2021/03/06 10:16:46;;;;;;;5.00;1.70;;;15.00;29.50;;;;;;5047368;28;20042;-70
2021/03/06 10:19:13;;;;;;;3.50;1.98;;;15.10;29.30;;;;;;5075012;28;20024;-78
2021/03/06 10:21:39;;;;;;;3.05;1.80;;;15.30;29.50;;;;;;5059691;28;20534;-69
2021/03/06 10:24:07;;;;;;;2.53;1.50;;;15.50;29.40;;;;;;5074037;28;20099;-71
2021/03/06 10:26:36;;;;;;;2.58;1.58;;;15.50;28.80;;;;;;5061658;28;20039;-73
2021/03/06 10:29:20;;;;;;;2.80;1.60;;;15.10;28.60;;;;;;5065327;28;20494;-74
2021/03/06 10:31:54;;;;;;;4.13;1.63;;;14.90;28.90;;;;;;5058566;28;20390;-69
2021/03/06 10:34:26;;;;;;;2.97;2.00;;;15.00;29.00;;;;;;5052277;28;20021;-69
2021/03/06 10:37:13;;;;;;;2.88;1.67;;;15.10;29.20;;;;;;5085733;28;20383;-71
2021/03/06 10:39:51;;;;;;;3.17;1.60;;;15.10;28.50;;;;;;5062134;28;20028;-71
2021/03/06 10:42:17;;;;;;;2.58;1.73;;;15.00;28.60;;;;;;5048386;28;20107;-70
2021/03/06 10:44:43;;;;;;;3.33;1.80;;;15.20;28.60;;;;;;5057240;28;20144;-71
2021/03/06 10:47:09;;;;;;;4.57;1.67;;;15.40;28.50;;;;;;5086206;28;20036;-71
2021/03/06 10:49:39;;;;;;;2.35;1.60;;;15.40;28.20;;;;;;5059784;28;20077;-70
2021/03/06 10:52:06;;;;;;;2.00;1.40;;;15.40;28.20;;;;;;5056989;28;20386;-70
2021/03/06 10:54:55;;;;;;;2.80;1.63;;;15.40;28.40;;;;;;5066725;28;20442;-70
2021/03/06 10:57:21;;;;;;;4.65;1.90;;;15.00;28.10;;;;;;5069933;28;20049;-70
2021/03/06 10:59:48;;;;;;;3.55;1.65;;;15.00;28.20;;;;;;5058505;28;20081;-70
2021/03/06 11:02:33;;;;;;;3.88;1.80;;;15.10;28.30;;;;;;5063376;28;20024;-70
2021/03/06 11:05:18;;;;;;;3.13;1.80;;;15.30;28.00;;;;;;5071842;28;20024;-70
2021/03/06 11:07:44;;;;;;;4.68;1.75;;;15.40;27.90;;;;;;5063065;28;20481;-70
2021/03/06 11:10:10;;;;;;;3.70;1.83;;;15.40;28.20;;;;;;5061133;28;20033;-70
2021/03/06 11:12:36;;;;;;;3.75;2.28;;;15.50;28.10;;;;;;5061156;28;20107;-70
2021/03/06 11:15:13;;;;;;;3.45;1.55;;;15.60;27.90;;;;;;5078373;28;20095;-70
2021/03/06 11:17:41;;;;;;;3.25;1.95;;;15.40;27.60;;;;;;5062945;28;20370;-70
2021/03/06 11:20:08;;;;;;;3.25;1.95;;;15.00;27.70;;;;;;5076610;28;20107;-70
2021/03/06 11:22:35;;;;;;;2.83;1.73;;;15.10;28.10;;;;;;5095066;28;20103;-70
2021/03/06 11:25:00;;;;;;;3.45;2.15;;;15.20;28.10;;;;;;5076375;28;20020;-70
2021/03/06 11:27:26;;;;;;;4.07;2.00;;;15.40;28.30;;;;;;5095134;28;20360;-70
2021/03/06 11:29:52;;;;;;;3.45;1.80;;;15.40;27.80;;;;;;5076445;28;20486;-69
2021/03/06 11:32:21;;;;;;;2.63;1.60;;;15.40;27.60;;;;;;5076802;28;20024;-70
2021/03/06 11:34:47;;;;;;;3.60;1.85;;;15.30;27.70;;;;;;5076705;28;20112;-70
2021/03/06 11:37:13;;;;;;;3.70;1.98;;;15.20;27.80;;;;;;5093944;28;20076;-70
2021/03/06 11:39:38;;;;;;;3.78;1.98;;;15.00;27.80;;;;;;5076926;28;20531;-68
2021/03/06 11:42:07;;;;;;;4.10;2.10;;;14.80;27.80;;;;;;5076442;28;20031;-68
2021/03/06 11:44:34;;;;;;;3.63;1.90;;;14.70;27.90;;;;;;5094705;28;20059;-69
2021/03/06 11:47:00;;;;;;;4.30;2.20;;;14.80;28.10;;;;;;5091055;28;20028;-69
2021/03/06 11:49:26;;;;;;;3.60;2.00;;;14.70;28.10;;;;;;5065721;28;20024;-69
2021/03/06 11:51:51;;;;;;;3.50;1.73;;;14.70;28.10;;;;;;5076115;28;20023;-69
2021/03/06 11:54:19;;;;;;;3.00;1.85;;;14.80;28.30;;;;;;5094487;28;20088;-69
2021/03/06 11:56:44;;;;;;;6.22;1.55;;;14.90;27.90;;;;;;5094613;28;20032;-69
2021/03/06 11:59:10;;;;;;;3.97;1.88;;;14.60;28.10;;;;;;5075717;28;20072;-68
2021/03/06 12:01:36;;;;;;;4.38;1.95;;;14.50;27.50;;;;;;5094568;28;20074;-68
2021/03/06 12:04:02;;;;;;;3.03;1.90;;;14.30;27.40;;;;;;5076125;28;20020;-68
2021/03/06 12:06:28;;;;;;;2.80;1.70;;;14.00;27.50;;;;;;5094180;28;20111;-69
2021/03/06 12:08:53;;;;;;;2.80;1.48;;;13.50;27.40;;;;;;5075851;28;20120;-69
2021/03/06 12:11:19;;;;;;;5.57;1.40;;;13.10;27.50;;;;;;5093980;28;20032;-69
2021/03/06 12:13:45;;;;;;;3.03;1.35;;;13.00;27.40;;;;;;5075894;28;20098;-69
2021/03/06 12:16:11;;;;;;;2.30;1.40;;;12.70;27.10;;;;;;5094009;28;20028;-68
2021/03/06 12:18:37;;;;;;;3.40;1.60;;;12.40;27.10;;;;;;5093929;28;20042;-68
2021/03/06 12:21:02;;;;;;;2.83;1.30;;;12.20;27.20;;;;;;5075577;28;20028;-68
2021/03/06 12:23:28;;;;;;;3.33;1.40;;;12.00;27.20;;;;;;5094151;28;20051;-68
2021/03/06 12:25:54;;;;;;;3.67;1.63;;;11.70;27.30;;;;;;5093982;28;20036;-69
2021/03/06 12:28:20;;;;;;;3.53;1.80;;;11.60;27.50;;;;;;5075434;28;20451;-68
2021/03/06 12:30:45;;;;;;;4.70;1.83;;;11.30;27.40;;;;;;5075507;28;20069;-69
2021/03/06 12:33:11;;;;;;;3.58;1.70;;;11.00;27.60;;;;;;5075378;28;20045;-68
2021/03/06 12:35:37;;;;;;;2.90;1.70;;;10.50;27.70;;;;;;5093604;28;20020;-68
2021/03/06 12:38:03;;;;;;;3.85;1.70;;;10.10;28.10;;;;;;5075264;28;20204;-68
2021/03/06 12:40:28;;;;;;;3.10;1.40;;;9.80;28.50;;;;;;5093378;28;20027;-68
2021/03/06 12:42:54;;;;;;;10.93;2.05;;;9.50;28.60;;;;;;5093563;28;20024;-68
2021/03/06 12:45:21;;;;;;;5.78;1.90;;;9.30;29.00;;;;;;5074786;28;20032;-68
2021/03/06 12:47:47;;;;;;;3.10;1.90;;;9.00;29.80;;;;;;5083106;28;20021;-68
2021/03/06 12:50:15;;;;;;;3.13;1.75;;;8.80;29.60;;;;;;5088911;28;20016;-68
2021/03/06 12:52:41;;;;;;;3.05;1.60;;;8.50;29.80;;;;;;5093238;28;20027;-68
2021/03/06 12:55:07;;;;;;;3.92;1.73;;;8.20;30.00;;;;;;5093039;28;20107;-71
2021/03/06 12:57:34;;;;;;;4.90;2.10;;;8.00;30.30;;;;;;5062669;28;20364;-68
2021/03/06 12:59:59;;;;;;;3.92;2.00;;;7.90;30.60;;;;;;5082255;28;20459;-69
2021/03/06 13:02:25;;;;;;;4.40;2.05;;;7.70;30.70;;;;;;5054734;28;20031;-69
2021/03/06 13:04:51;;;;;;;4.35;1.98;;;7.40;30.80;;;;;;5069870;28;20025;-70
2021/03/06 13:07:17;;;;;;;2.97;1.65;;;7.20;31.10;;;;;;5066463;28;20060;-71
2021/03/06 13:09:42;;;;;;;2.58;1.80;;;7.00;31.30;;;;;;5051594;28;20025;-70
2021/03/06 13:12:09;;;;;;;4.70;2.10;;;7.00;31.50;;;;;;5069522;28;20024;-72
2021/03/06 13:14:35;;;;;;;3.38;1.70;;;6.90;31.70;;;;;;5041292;28;20025;-69
2021/03/06 13:17:01;;;;;;;3.40;2.05;;;6.90;31.90;;;;;;5050993;28;20518;-69
2021/03/06 13:19:26;;;;;;;3.97;1.90;;;6.80;32.10;;;;;;5063206;28;20058;-69
2021/03/06 13:21:52;;;;;;;4.13;1.80;;;6.70;32.20;;;;;;5089606;28;20020;-69
2021/03/06 13:24:18;;;;;;;2.42;1.60;;;6.60;32.10;;;;;;5056127;28;20037;-70
2021/03/06 13:26:44;;;;;;;7.22;1.90;;;6.50;32.00;;;;;;5064298;28;20478;-69
2021/03/06 13:29:10;;;;;;;3.15;1.50;;;6.30;32.10;;;;;;5051048;28;20025;-69
2021/03/06 13:31:35;;;;;;;4.15;2.25;;;6.20;32.10;;;;;;5067834;28;20538;-69
2021/03/06 13:34:01;;;;;;;6.28;2.35;;;6.00;32.30;;;;;;5084045;28;20359;-69
2021/03/06 13:36:27;;;;;;;4.50;2.10;;;5.90;32.50;;;;;;5072766;28;20065;-70
2021/03/06 13:38:53;;;;;;;5.47;1.75;;;5.80;32.40;;;;;;5057050;28;20045;-69
2021/03/06 13:41:19;;;;;;;4.63;2.08;;;5.60;32.60;;;;;;5051363;28;20032;-69
2021/03/06 13:43:45;;;;;;;2.85;1.60;;;5.40;32.50;;;;;;5081527;28;20091;-69
2021/03/06 13:46:10;;;;;;;2.70;1.65;;;5.30;32.40;;;;;;5051266;28;20042;-69
2021/03/06 13:48:36;;;;;;;3.30;1.80;;;5.30;32.30;;;;;;5048815;28;20080;-69
2021/03/06 13:51:02;;;;;;;4.90;2.13;;;5.20;32.30;;;;;;5053458;28;20384;-69
2021/03/06 13:53:34;;;;;;;4.40;1.67;;;5.10;32.10;;;;;;5053161;28;20032;-69
2021/03/06 13:56:00;;;;;;;4.95;1.73;;;5.00;31.90;;;;;;5051834;28;20120;-69
2021/03/06 13:58:26;;;;;;;3.05;1.75;;;4.90;31.90;;;;;;5037587;28;20177;-68
2021/03/06 14:00:52;;;;;;;3.20;1.80;;;4.70;31.90;;;;;;5064516;28;20017;-69
2021/03/06 14:03:17;;;;;;;4.10;1.80;;;4.70;32.20;;;;;;5058398;28;20029;-68
2021/03/06 14:05:43;;;;;;;3.35;1.80;;;4.60;32.30;;;;;;5083974;28;20036;-67
2021/03/06 14:08:09;;;;;;;4.88;2.53;;;4.50;32.40;;;;;;5056532;28;20028;-68
2021/03/06 14:10:34;;;;;;;5.60;2.97;;;4.60;32.60;;;;;;5071300;28;20432;-68
2021/03/06 14:13:00;;;;;;;4.60;2.20;;;4.50;32.70;;;;;;5084218;28;20028;-69
2021/03/06 14:15:26;;;;;;;3.47;2.40;;;4.40;32.90;;;;;;5067039;28;20032;-68
2021/03/06 14:17:52;;;;;;;5.57;2.63;;;4.50;33.10;;;;;;5081897;28;20041;-70
2021/03/06 14:20:18;;;;;;;5.22;2.80;;;4.50;33.30;;;;;;5094714;28;20474;-68
2021/03/06 14:22:44;;;;;;;5.80;2.40;;;4.50;33.50;;;;;;5062306;28;20480;-69
2021/03/06 14:25:10;;;;;;;6.03;2.47;;;4.50;33.70;;;;;;5072651;28;20052;-68
2021/03/06 14:27:36;;;;;;;6.18;2.63;;;4.60;34.00;;;;;;5069940;28;20069;-69
2021/03/06 14:30:04;;;;;;;5.45;2.22;;;4.70;34.10;;;;;;5087701;28;20020;-69
2021/03/06 14:32:30;;;;;;;7.15;2.92;;;4.70;34.10;;;;;;5072221;28;20320;-68
2021/03/06 14:34:56;;;;;;;7.40;3.45;;;4.80;34.30;;;;;;5082144;28;20036;-70
2021/03/06 14:37:22;;;;;;;5.18;3.00;;;4.90;34.50;;;;;;5065595;28;20052;-68
2021/03/06 14:39:49;;;;;;;5.00;2.53;;;5.00;34.60;;;;;;5075782;28;20032;-68
2021/03/06 14:42:16;;;;;;;6.80;3.40;;;5.00;34.80;;;;;;5049348;28;20431;-68
2021/03/06 14:44:41;;;;;;;8.45;3.20;;;5.10;34.80;;;;;;5076329;28;20021;-68
2021/03/06 14:47:08;;;;;;;6.97;3.20;;;5.30;34.90;;;;;;5075877;28;20039;-69
2021/03/06 14:49:35;;;;;;;5.45;2.88;;;5.30;34.80;;;;;;5051255;28;20029;-69
2021/03/06 14:52:01;;;;;;;6.95;3.25;;;5.20;35.00;;;;;;5073885;28;20028;-68
2021/03/06 14:54:27;;;;;;;6.95;3.35;;;5.10;35.00;;;;;;5075535;28;20193;-68
2021/03/06 14:56:53;;;;;;;7.95;3.25;;;5.10;35.30;;;;;;5073077;28;20029;-68
2021/03/06 14:59:23;;;;;;;8.25;3.42;;;4.90;35.50;;;;;;5069677;28;20510;-68
2021/03/06 15:01:49;;;;;;;7.22;3.80;;;4.80;35.80;;;;;;5063368;28;20027;-68
2021/03/06 15:04:15;;;;;;;7.28;3.58;;;4.60;36.20;;;;;;5063062;28;20363;-67
2021/03/06 15:06:40;;;;;;;6.50;3.60;;;4.50;36.60;;;;;;5078752;28;20036;-68
2021/03/06 15:09:06;;;;;;;5.97;2.97;;;4.30;36.90;;;;;;5067824;28;20051;-68
2021/03/06 15:11:32;;;;;;;7.88;3.95;;;4.20;37.20;;;;;;5074886;28;20054;-68
2021/03/06 15:13:58;;;;;;;8.18;4.22;;;4.10;37.70;;;;;;5072754;28;20061;-68
2021/03/06 15:16:24;;;;;;;8.77;3.90;;;4.00;38.00;;;;;;5087069;28;20059;-67
2021/03/06 15:18:49;;;;;;;10.82;4.30;;;3.90;38.40;;;;;;5081370;28;20076;-67
2021/03/06 15:21:15;;;;;;;6.57;3.35;;;3.90;38.80;;;;;;5076645;28;20050;-67
2021/03/06 15:23:41;;;;;;;6.05;3.20;;;3.80;39.00;;;;;;5071397;28;20017;-69
2021/03/06 15:26:07;;;;;;;8.38;3.50;;;3.80;39.40;;;;;;5076582;28;20056;-68
2021/03/06 15:28:33;;;;;;;6.57;3.30;;;3.70;39.60;;;;;;5061107;28;20498;-67
2021/03/06 15:30:58;;;;;;;6.63;2.60;;;3.70;40.10;;;;;;5048502;28;20059;-68
2021/03/06 15:33:24;;;;;;;11.57;3.63;;;3.70;40.60;;;;;;5062233;28;20024;-67
2021/03/06 15:35:50;;;;;;;11.57;4.28;;;3.60;41.20;;;;;;5067454;28;20029;-67
2021/03/06 15:38:16;;;;;;;5.90;3.55;;;3.50;41.40;;;;;;5083538;28;20040;-68
2021/03/06 15:40:42;;;;;;;7.88;3.72;;;3.50;41.50;;;;;;5052444;28;20093;-68
2021/03/06 15:43:07;;;;;;;8.50;4.72;;;3.40;41.50;;;;;;5056674;28;20476;-68
2021/03/06 15:45:33;;;;;;;8.68;4.47;;;3.40;41.60;;;;;;5087683;28;20036;-68
2021/03/06 15:47:59;;;;;;;9.73;4.10;;;3.30;41.50;;;;;;5063261;28;20047;-67
2021/03/06 15:50:26;;;;;;;7.70;3.97;;;3.30;41.50;;;;;;5075607;28;20450;-68
2021/03/06 15:52:52;;;;;;;6.95;3.67;;;3.30;41.40;;;;;;5076139;28;20024;-67
2021/03/06 15:55:18;;;;;;;7.35;3.72;;;3.20;41.30;;;;;;5067015;28;20040;-66
2021/03/06 15:57:44;;;;;;;10.20;4.25;;;3.10;41.40;;;;;;5066235;28;20459;-66
2021/03/06 16:00:13;;;;;;;9.13;3.95;;;3.00;41.70;;;;;;5054056;28;20029;-66
2021/03/06 16:02:39;;;;;;;10.05;3.88;;;2.90;42.00;;;;;;5066020;28;20074;-67
2021/03/06 16:05:05;;;;;;;8.77;3.63;;;2.80;42.20;;;;;;5055407;28;20463;-67
2021/03/06 16:07:31;;;;;;;7.25;3.55;;;2.70;42.50;;;;;;5081747;28;20024;-67
2021/03/06 16:10:00;;;;;;;7.00;4.20;;;2.60;42.70;;;;;;5081747;28;20027;-68
2021/03/06 16:12:25;;;;;;;12.20;4.45;;;2.60;43.00;;;;;;5055036;28;20387;-68
2021/03/06 16:14:51;;;;;;;12.77;4.88;;;2.50;43.20;;;;;;5072931;28;20029;-67
2021/03/06 16:17:17;;;;;;;10.40;5.00;;;2.50;43.50;;;;;;5050658;28;20028;-68
2021/03/06 16:19:43;;;;;;;10.60;4.85;;;2.50;43.70;;;;;;5062305;28;20021;-67
2021/03/06 16:22:10;;;;;;;11.70;5.97;;;2.60;43.80;;;;;;5090580;28;20032;-68
2021/03/06 16:24:36;;;;;;;13.13;7.05;;;2.60;43.90;;;;;;5068954;28;20025;-68
2021/03/06 16:27:03;;;;;;;14.70;6.32;;;2.70;44.00;;;;;;5080821;28;20058;-68
2021/03/06 16:29:29;;;;;;;11.98;6.30;;;2.70;44.00;;;;;;5069937;28;20025;-70
2021/03/06 16:31:55;;;;;;;14.80;6.75;;;2.70;44.10;;;;;;5086684;28;20031;-68
2021/03/06 16:34:21;;;;;;;12.95;6.25;;;2.70;44.20;;;;;;5081800;28;20458;-68
2021/03/06 16:36:47;;;;;;;12.15;5.82;;;2.70;44.30;;;;;;5075913;28;20024;-69
2021/03/06 16:39:13;;;;;;;11.82;6.70;;;2.70;44.50;;;;;;5083582;28;20049;-69
2021/03/06 16:41:39;;;;;;;13.52;5.57;;;2.70;44.60;;;;;;5064598;28;20381;-68
2021/03/06 16:44:06;;;;;;;10.55;5.25;;;2.70;45.00;;;;;;5051413;28;20028;-69
2021/03/06 16:46:36;;;;;;;15.43;7.25;;;2.70;45.00;;;;;;5072744;28;20043;-69
2021/03/06 16:49:03;;;;;;;12.00;5.60;;;2.70;45.20;;;;;;5056198;28;20029;-69
2021/03/06 16:51:28;;;;;;;13.57;6.57;;;2.60;45.20;;;;;;5052092;28;20025;-67
2021/03/06 16:53:55;;;;;;;9.60;5.15;;;2.60;45.50;;;;;;5055931;28;20020;-67
2021/03/06 16:56:21;;;;;;;10.15;4.40;;;2.60;45.70;;;;;;5057979;28;20051;-67
2021/03/06 16:58:47;;;;;;;10.75;5.07;;;2.60;46.00;;;;;;5086654;28;20462;-67
2021/03/06 17:01:14;;;;;;;10.68;5.38;;;2.60;46.20;;;;;;5057564;28;20086;-67
2021/03/06 17:03:40;;;;;;;14.77;5.47;;;2.50;46.60;;;;;;5055042;28;20053;-67
2021/03/06 17:06:06;;;;;;;16.05;6.32;;;2.40;46.80;;;;;;5086620;28;20091;-68
2021/03/06 17:08:32;;;;;;;12.77;5.65;;;2.40;46.90;;;;;;5064720;28;20028;-67
2021/03/06 17:10:57;;;;;;;10.35;5.47;;;2.30;47.10;;;;;;5075235;28;20032;-68
2021/03/06 17:13:23;;;;;;;13.38;6.07;;;2.30;47.20;;;;;;5082576;28;20131;-68
2021/03/06 17:15:49;;;;;;;12.02;6.75;;;2.30;47.30;;;;;;5084071;28;20403;-68
2021/03/06 17:18:15;;;;;;;18.00;7.90;;;2.20;47.30;;;;;;5078708;28;20487;-67
2021/03/06 17:20:41;;;;;;;16.85;7.93;;;2.20;47.50;;;;;;5074798;28;20466;-67
2021/03/06 17:23:06;;;;;;;13.00;7.32;;;2.10;47.60;;;;;;5074501;28;20051;-68
2021/03/06 17:25:32;;;;;;;21.10;9.23;;;2.00;47.90;;;;;;5068764;28;20541;-69
2021/03/06 17:27:58;;;;;;;18.17;8.60;;;2.00;48.10;;;;;;5072577;28;20115;-68
2021/03/06 17:30:24;;;;;;;21.42;9.20;;;2.00;48.20;;;;;;5073756;28;20454;-68
2021/03/06 17:32:50;;;;;;;18.30;8.13;;;2.00;48.20;;;;;;5092804;28;20028;-68
2021/03/06 17:35:16;;;;;;;19.58;8.63;;;1.90;48.30;;;;;;5078014;28;20024;-68
2021/03/06 17:37:41;;;;;;;21.23;8.75;;;1.90;48.60;;;;;;5099208;28;20501;-68
2021/03/06 17:40:12;;;;;;;18.58;8.57;;;1.90;48.70;;;;;;5099244;28;20035;-68
2021/03/06 17:42:39;;;;;;;15.88;6.95;;;1.80;48.80;;;;;;5081691;28;20047;-68
2021/03/06 17:45:07;;;;;;;14.63;7.55;;;1.80;48.80;;;;;;5098914;28;20059;-68
2021/03/06 17:47:33;;;;;;;15.05;6.75;;;1.80;49.00;;;;;;5081172;28;20028;-67
2021/03/06 17:49:59;;;;;;;15.68;7.18;;;1.70;49.10;;;;;;5081360;28;20374;-68
2021/03/06 17:52:24;;;;;;;15.02;8.30;;;1.70;49.40;;;;;;5081022;28;20070;-68
2021/03/06 17:54:50;;;;;;;13.50;5.78;;;1.60;49.50;;;;;;5081484;28;20425;-68
2021/03/06 17:57:16;;;;;;;11.88;6.03;;;1.60;49.80;;;;;;5098842;28;20478;-68
2021/03/06 17:59:42;;;;;;;10.35;5.68;;;1.50;50.10;;;;;;5081081;28;20394;-68
2021/03/06 18:02:09;;;;;;;11.25;5.47;;;1.50;50.40;;;;;;5099029;28;20028;-68
2021/03/06 18:04:35;;;;;;;10.77;5.07;;;1.40;50.70;;;;;;5099501;28;20050;-68
2021/03/06 18:07:01;;;;;;;10.18;4.63;;;1.30;50.90;;;;;;5081195;28;20532;-68
2021/03/06 18:09:27;;;;;;;9.05;5.13;;;1.30;51.30;;;;;;5099279;28;20111;-67
2021/03/06 18:11:52;;;;;;;12.13;4.90;;;1.20;52.00;;;;;;5099100;28;20485;-68
2021/03/06 18:14:19;;;;;;;10.43;5.95;;;1.20;52.20;;;;;;5080668;28;20523;-68
2021/03/06 18:16:45;;;;;;;13.73;6.05;;;1.20;52.70;;;;;;5099174;28;20032;-68
2021/03/06 18:19:10;;;;;;;10.70;6.00;;;1.20;53.10;;;;;;5080721;28;20020;-68
2021/03/06 18:21:36;;;;;;;12.23;6.03;;;1.20;53.30;;;;;;5080894;28;20080;-68
2021/03/06 18:24:02;;;;;;;12.70;6.45;;;1.20;53.40;;;;;;5081139;28;20027;-68